Time;durP1;ratioP1;P1;durP2;ratioP2;P2;SDS_P1;SDS_P2;PMS_P1;PMS_P2;Temp;Humidity;BMP_temperature;BMP_pressure;BME280_temperature;BME280_humidity;BME280_pressure;Samples;Min_cycle;Max_cycle;Signal;HPM_P1;HPM_P2
2022/12/28 00:00:39;;;;;;;;;6.50;6.50;;;;;11.35;67.59;101991.28;2394045;28;44668;-76
2022/12/28 00:01:49;;;;;;;;;6.50;6.50;;;;;11.34;67.55;101993.91;2390198;28;47271;-76
2022/12/28 00:03:00;;;;;;;;;9.75;8.25;;;;;11.34;67.57;101986.00;2403525;28;45313;-76
2022/12/28 00:04:13;;;;;;;;;6.25;6.25;;;;;11.34;67.35;101984.25;2403580;28;45628;-76
2022/12/28 00:05:23;;;;;;;;;7.75;6.75;;;;;11.34;67.45;101978.09;2402899;28;45166;-76
2022/12/28 00:06:34;;;;;;;;;6.00;6.00;;;;;11.33;67.62;101977.22;2400175;28;46499;-76
2022/12/28 00:07:44;;;;;;;;;7.50;5.50;;;;;11.34;67.57;101972.84;2397233;28;45385;-76
2022/12/28 00:08:56;;;;;;;;;10.75;9.00;;;;;11.32;67.40;101972.88;2403326;28;46707;-75
2022/12/28 00:10:06;;;;;;;;;6.75;5.25;;;;;11.31;67.53;101965.03;2394591;28;45305;-75
2022/12/28 00:11:18;;;;;;;;;3.75;3.75;;;;;11.31;67.47;101973.75;2412191;28;48153;-76
2022/12/28 00:12:29;;;;;;;;;15.75;9.00;;;;;11.31;67.97;101965.03;2402837;28;45311;-76
2022/12/28 00:13:40;;;;;;;;;5.75;5.50;;;;;11.32;67.60;101964.09;2397371;28;46367;-75
2022/12/28 00:14:50;;;;;;;;;16.75;11.50;;;;;11.32;67.55;101961.47;2394493;28;44614;-76
2022/12/28 00:16:08;;;;;;;;;7.00;7.00;;;;;11.30;67.65;101961.50;2394305;28;45317;-76
2022/12/28 00:17:18;;;;;;;;;7.50;5.75;;;;;11.31;67.65;101965.88;2394319;28;45252;-76
2022/12/28 00:18:32;;;;;;;;;9.00;5.50;;;;;11.31;67.51;101963.22;2402353;28;45321;-76
2022/12/28 00:19:42;;;;;;;;;6.00;6.00;;;;;11.31;67.54;101950.06;2403982;28;44538;-76
2022/12/28 00:20:57;;;;;;;;;8.00;5.00;;;;;11.32;67.36;101956.22;2412357;28;47433;-76
2022/12/28 00:22:07;;;;;;;;;6.25;6.25;;;;;11.32;67.83;101951.81;2409330;28;45469;-76
2022/12/28 00:23:18;;;;;;;;;9.75;4.75;;;;;11.31;67.90;101951.84;2401000;28;46668;-76
2022/12/28 00:24:28;;;;;;;;;7.25;5.00;;;;;11.31;68.03;101949.22;2394500;28;45317;-75
2022/12/28 00:25:38;;;;;;;;;7.25;5.75;;;;;11.30;67.55;101945.72;2393348;28;47742;-76
2022/12/28 00:26:49;;;;;;;;;5.75;4.00;;;;;11.30;67.88;101940.47;2393557;28;45410;-76
2022/12/28 00:28:00;;;;;;;;;8.00;7.00;;;;;11.30;67.89;101939.59;2394206;28;46586;-76
2022/12/28 00:29:10;;;;;;;;;7.00;6.00;;;;;11.29;67.79;101937.84;2394354;28;44656;-76
2022/12/28 00:30:21;;;;;;;;;8.75;7.75;;;;;11.28;67.78;101937.00;2394199;28;45455;-76
2022/12/28 00:31:32;;;;;;;;;2.25;1.75;;;;;11.27;67.94;101940.50;2395169;28;45257;-75
2022/12/28 00:32:43;;;;;;;;;7.50;5.75;;;;;11.27;67.75;101934.34;2403715;28;45439;-76
2022/12/28 00:33:53;;;;;;;;;5.25;5.25;;;;;11.26;67.85;101930.84;2396479;28;45189;-76
2022/12/28 00:35:04;;;;;;;;;4.00;4.00;;;;;11.26;67.82;101922.97;2393655;28;45265;-76
2022/12/28 00:36:15;;;;;;;;;5.75;4.25;;;;;11.27;67.86;101932.59;2394479;28;45260;-75
2022/12/28 00:37:25;;;;;;;;;7.50;5.25;;;;;11.25;67.95;101916.84;2394079;28;46257;-76
2022/12/28 00:38:38;;;;;;;;;6.00;4.00;;;;;11.27;67.83;101919.44;2394554;28;44933;-76
2022/12/28 00:39:49;;;;;;;;;5.75;5.25;;;;;11.28;67.92;101925.59;2394103;28;46576;-76
2022/12/28 00:40:59;;;;;;;;;6.00;4.50;;;;;11.28;68.08;101925.59;2393542;28;45613;-76
2022/12/28 00:42:10;;;;;;;;;6.00;3.25;;;;;11.29;68.21;101924.66;2396285;28;45463;-76
2022/12/28 00:43:20;;;;;;;;;7.50;5.75;;;;;11.30;68.09;101918.53;2412302;28;45330;-75
2022/12/28 00:44:31;;;;;;;;;3.25;2.00;;;;;11.29;68.16;101903.63;2400497;28;46486;-76
2022/12/28 00:45:46;;;;;;;;;8.25;5.75;;;;;11.32;68.01;101900.94;2401970;28;45309;-76
2022/12/28 00:46:57;;;;;;;;;5.00;5.00;;;;;11.32;67.63;101908.84;2398412;28;45668;-76
2022/12/28 00:48:07;;;;;;;;;4.00;4.00;;;;;11.33;68.05;101905.31;2398903;28;44770;-76
2022/12/28 00:49:17;;;;;;;;;5.25;4.50;;;;;11.34;68.10;101905.28;2402729;28;45338;-76
2022/12/28 00:50:28;;;;;;;;;7.00;5.00;;;;;11.35;67.81;101901.78;2403348;28;45323;-76
2022/12/28 00:51:38;;;;;;;;;4.50;4.50;;;;;11.37;68.14;101904.38;2403309;28;46214;-76
2022/12/28 00:52:48;;;;;;;;;7.75;4.25;;;;;11.37;68.01;101901.72;2405794;28;45377;-75
2022/12/28 00:53:59;;;;;;;;;5.25;4.75;;;;;11.38;67.98;101898.22;2400229;28;45368;-76
2022/12/28 00:55:09;;;;;;;;;7.50;5.00;;;;;11.37;67.90;101899.09;2394166;28;45146;-75
2022/12/28 00:56:21;;;;;;;;;7.50;5.00;;;;;11.36;67.92;101905.25;2396711;28;45410;-76
2022/12/28 00:57:32;;;;;;;;;6.25;4.50;;;;;11.34;68.13;101893.88;2397167;28;44869;-76
2022/12/28 00:58:43;;;;;;;;;5.75;5.00;;;;;11.35;68.01;101896.50;2393555;28;46253;-76
2022/12/28 00:59:54;;;;;;;;;4.50;4.50;;;;;11.35;67.85;101899.13;2394164;28;44639;-76
2022/12/28 01:01:05;;;;;;;;;5.50;5.00;;;;;11.36;68.11;101897.34;2394055;28;45458;-76
2022/12/28 01:02:15;;;;;;;;;4.00;4.00;;;;;11.35;68.04;101900.91;2402849;28;44667;-76
2022/12/28 01:03:26;;;;;;;;;4.50;4.00;;;;;11.35;67.97;101890.38;2402616;28;46143;-76
2022/12/28 01:04:36;;;;;;;;;2.50;2.00;;;;;11.35;67.88;101896.50;2403477;28;45277;-76
2022/12/28 01:05:47;;;;;;;;;8.25;5.00;;;;;11.33;67.90;101887.75;2398046;28;45421;-76
2022/12/28 01:06:57;;;;;;;;;3.75;3.75;;;;;11.34;68.13;101885.97;2394078;28;44667;-76
2022/12/28 01:08:07;;;;;;;;;6.25;5.00;;;;;11.34;68.14;101883.34;2398609;28;45493;-76
2022/12/28 01:09:18;;;;;;;;;6.25;4.00;;;;;11.35;68.23;101885.09;2403506;28;45328;-76
2022/12/28 01:10:28;;;;;;;;;5.00;4.00;;;;;11.35;67.74;101882.47;2403322;28;46396;-76
2022/12/28 01:11:38;;;;;;;;;4.75;3.50;;;;;11.35;68.37;101880.72;2395762;28;45342;-76
2022/12/28 01:12:49;;;;;;;;;7.25;5.25;;;;;11.35;68.26;101877.19;2394166;28;45643;-76
2022/12/28 01:14:00;;;;;;;;;5.75;5.50;;;;;11.38;68.19;101876.28;2396330;28;45498;-75
2022/12/28 01:15:12;;;;;;;;;6.00;4.25;;;;;11.39;68.11;101876.25;2402188;28;47194;-76
2022/12/28 01:16:24;;;;;;;;;7.50;4.75;;;;;11.40;68.05;101871.84;2402821;28;45255;-75
2022/12/28 01:17:34;;;;;;;;;4.75;4.50;;;;;11.41;67.87;101877.06;2403004;28;46361;-76
2022/12/28 01:18:45;;;;;;;;;6.25;4.75;;;;;11.42;68.00;101868.28;2394179;28;45142;-76
2022/12/28 01:19:56;;;;;;;;;5.00;4.25;;;;;11.42;68.03;101865.66;2393859;28;45345;-76
2022/12/28 01:21:08;;;;;;;;;4.00;3.00;;;;;11.43;68.05;101867.38;2394055;28;45206;-76
2022/12/28 01:22:18;;;;;;;;;6.00;4.00;;;;;11.45;68.11;101870.00;2411527;28;47626;-76
2022/12/28 01:23:29;;;;;;;;;4.00;4.00;;;;;11.48;68.01;101875.22;2409049;28;45288;-76
2022/12/28 01:24:39;;;;;;;;;5.75;4.00;;;;;11.47;68.15;101869.09;2402424;28;47100;-76
2022/12/28 01:25:49;;;;;;;;;4.75;4.00;;;;;11.48;67.87;101868.16;2402869;28;45297;-76
2022/12/28 01:27:00;;;;;;;;;5.00;5.00;;;;;11.48;67.92;101873.44;2402944;28;46190;-75
2022/12/28 01:28:10;;;;;;;;;5.50;4.00;;;;;11.51;67.95;101869.03;2398802;28;45265;-76
2022/12/28 01:29:20;;;;;;;;;3.25;3.00;;;;;11.51;68.37;101866.41;2393761;28;46183;-75
2022/12/28 01:30:31;;;;;;;;;6.00;4.25;;;;;11.50;67.71;101870.78;2400744;28;45234;-76
2022/12/28 01:31:41;;;;;;;;;3.75;3.75;;;;;11.52;67.98;101870.75;2403177;28;45353;-76
2022/12/28 01:32:51;;;;;;;;;4.00;3.25;;;;;11.52;68.00;101868.13;2396635;28;45417;-76
2022/12/28 01:34:02;;;;;;;;;5.50;4.00;;;;;11.53;67.90;101867.25;2397706;28;45356;-76
2022/12/28 01:35:12;;;;;;;;;6.75;5.50;;;;;11.55;67.74;101855.78;2412132;28;45218;-76
2022/12/28 01:36:25;;;;;;;;;8.00;4.00;;;;;11.57;67.82;101861.00;2409422;28;46207;-76
2022/12/28 01:37:36;;;;;;;;;4.75;4.75;;;;;11.56;67.77;101861.88;2403103;28;44579;-76
2022/12/28 01:38:50;;;;;;;;;7.50;4.75;;;;;11.57;67.87;101863.63;2395487;28;45336;-76
2022/12/28 01:40:00;;;;;;;;;5.50;5.50;;;;;11.57;67.95;101875.03;2393183;28;45288;-76
2022/12/28 01:41:14;;;;;;;;;3.25;1.25;;;;;11.56;67.75;101864.53;2398087;28;45609;-76
2022/12/28 01:42:24;;;;;;;;;4.50;4.25;;;;;11.58;67.95;101868.03;2401123;28;45231;-76
2022/12/28 01:43:43;;;;;;;;;6.00;5.25;;;;;11.59;67.93;101864.47;2393763;28;46742;-76
2022/12/28 01:44:54;;;;;;;;;5.25;5.00;;;;;11.59;67.99;101867.09;2393760;28;45269;-76
2022/12/28 01:46:05;;;;;;;;;7.75;4.00;;;;;11.59;67.79;101869.75;2393666;28;45322;-76
2022/12/28 01:47:32;;;;;;;;;5.00;5.00;;;;;11.61;68.19;101870.56;2393804;28;45193;-76
2022/12/28 01:48:51;;;;;;;;;3.75;2.50;;;;;11.61;67.88;101874.97;2393032;28;46344;-76
2022/12/28 01:50:09;;;;;;;;;6.00;4.25;;;;;11.61;67.98;101867.94;2393268;28;44774;-76
2022/12/28 01:51:21;;;;;;;;;4.00;4.00;;;;;11.61;68.01;101878.47;2398659;28;46596;-76
2022/12/28 01:52:38;;;;;;;;;6.75;4.75;;;;;11.62;67.88;101874.97;2399567;28;45478;-76
2022/12/28 01:53:52;;;;;;;;;5.00;4.00;;;;;11.62;67.98;101871.44;2393195;28;45356;-76
2022/12/28 01:55:10;;;;;;;;;5.75;4.25;;;;;11.63;68.05;101867.94;2393119;28;45301;-76
2022/12/28 01:56:22;;;;;;;;;4.25;2.00;;;;;11.63;68.06;101868.78;2392751;28;46461;-76
2022/12/28 01:57:38;;;;;;;;;7.00;5.00;;;;;11.65;68.00;101880.16;2394560;28;44785;-76
2022/12/28 01:58:49;;;;;;;;;4.00;4.00;;;;;11.65;68.18;101867.00;2403182;28;45350;-76
2022/12/28 02:00:11;;;;;;;;;7.50;5.00;;;;;11.66;67.79;101849.41;2403007;28;45333;-76
2022/12/28 02:01:21;;;;;;;;;5.25;5.25;;;;;11.66;67.92;101855.56;2400922;28;47508;-76
2022/12/28 02:02:32;;;;;;;;;4.50;4.00;;;;;11.66;68.03;101849.41;2402350;28;45491;-76
2022/12/28 02:03:43;;;;;;;;;5.50;4.50;;;;;11.66;68.09;101847.66;2402771;28;46521;-76
2022/12/28 02:04:53;;;;;;;;;6.00;4.75;;;;;11.67;67.71;101843.25;2402112;28;45168;-75
2022/12/28 02:06:08;;;;;;;;;5.75;5.00;;;;;11.66;68.00;101844.16;2402291;28;47747;-76
2022/12/28 02:07:34;;;;;;;;;7.00;5.25;;;;;11.66;67.78;101847.66;2389540;28;45279;-76
2022/12/28 02:09:01;;;;;;;;;5.50;5.00;;;;;11.68;67.89;101839.75;2406967;28;48042;-76
2022/12/28 02:10:14;;;;;;;;;4.50;4.00;;;;;11.67;67.96;101843.25;2402296;28;45304;-76
2022/12/28 02:11:24;;;;;;;;;6.25;5.25;;;;;11.68;67.80;101839.75;2401557;28;45288;-76
2022/12/28 02:12:35;;;;;;;;;5.50;5.50;;;;;11.68;67.91;101843.22;2400112;28;45447;-76
2022/12/28 02:13:47;;;;;;;;;5.00;4.75;;;;;11.68;67.99;101837.09;2393589;28;46301;-76
2022/12/28 02:14:57;;;;;;;;;4.00;4.00;;;;;11.69;67.99;101836.19;2393597;28;45250;-76
2022/12/28 02:16:09;;;;;;;;;5.00;5.00;;;;;11.68;67.99;101845.84;2393426;28;45711;-76
2022/12/28 02:17:20;;;;;;;;;6.00;5.00;;;;;11.67;68.01;101845.91;2395191;28;45370;-76
2022/12/28 02:18:31;;;;;;;;;7.25;5.75;;;;;11.66;67.95;101842.38;2403015;28;45391;-76
2022/12/28 02:19:46;;;;;;;;;4.75;4.50;;;;;11.67;68.16;101838.00;2402997;28;45304;-76
2022/12/28 02:21:03;;;;;;;;;5.00;5.00;;;;;11.69;67.93;101850.22;2399973;28;46545;-75
2022/12/28 02:22:23;;;;;;;;;6.50;6.00;;;;;11.69;67.92;101838.81;2402062;28;45450;-76
2022/12/28 02:23:43;;;;;;;;;8.50;5.50;;;;;11.71;68.01;101842.28;2398642;28;45334;-76
2022/12/28 02:25:16;;;;;;;;;7.25;5.00;;;;;11.72;68.03;101843.16;2401034;28;45297;-76
2022/12/28 02:26:43;;;;;;;;;7.75;6.75;;;;;11.72;67.97;101840.53;2397406;28;47372;-75
2022/12/28 02:28:25;;;;;;;;;3.75;3.25;;;;;11.72;67.93;101840.53;2401758;28;44746;-76
2022/12/28 02:30:02;;;;;;;;;9.00;5.00;;;;;11.70;67.87;101838.78;2392646;28;47492;-75
2022/12/28 02:31:20;;;;;;;;;7.75;4.50;;;;;11.70;67.33;101838.78;2397045;28;45217;-75
2022/12/28 02:32:53;;;;;;;;;5.75;4.75;;;;;11.71;68.10;101844.94;2400968;28;46457;-76
2022/12/28 02:34:17;;;;;;;;;6.25;6.25;;;;;11.71;68.08;101837.03;2393562;28;45276;-76
2022/12/28 02:35:47;;;;;;;;;5.00;5.00;;;;;11.72;67.97;101832.63;2393556;28;45556;-76
2022/12/28 02:37:09;;;;;;;;;6.75;5.50;;;;;11.70;67.85;101828.25;2393797;28;45329;-76
2022/12/28 02:38:29;;;;;;;;;6.25;5.50;;;;;11.72;68.03;101830.00;2393463;28;45572;-76
2022/12/28 02:39:46;;;;;;;;;7.00;5.75;;;;;11.71;68.10;101829.13;2393540;28;45344;-76
2022/12/28 02:41:07;;;;;;;;;5.00;5.00;;;;;11.71;68.06;101823.84;2394566;28;46513;-76
2022/12/28 02:42:20;;;;;;;;;10.75;7.00;;;;;11.69;67.80;101821.25;2402504;28;45273;-76
2022/12/28 02:43:32;;;;;;;;;11.50;6.00;;;;;11.71;67.69;101826.50;2401974;28;46176;-76
2022/12/28 02:51:07;;;;;;;;;6.50;6.00;;;;;11.73;67.83;101826.47;2401327;28;45309;-76
2022/12/28 02:52:28;;;;;;;;;6.25;6.25;;;;;11.74;68.04;101812.41;2392441;28;47590;-76
2022/12/28 02:53:55;;;;;;;;;6.00;6.00;;;;;11.74;67.78;101815.03;2393056;28;44660;-76
2022/12/28 02:57:14;;;;;;;;;5.75;5.50;;;;;11.70;68.21;101807.19;2393243;28;45528;-76
2022/12/28 02:58:47;;;;;;;;;4.75;4.75;;;;;11.73;68.13;101815.94;2397114;28;45447;-76
2022/12/28 03:00:11;;;;;;;;;5.50;3.00;;;;;11.74;68.07;101812.41;2394990;28;45351;-76
2022/12/28 03:01:57;;;;;;;;;9.00;7.25;;;;;11.72;68.27;101809.81;2394688;28;45344;-76
2022/12/28 03:03:15;;;;;;;;;4.50;3.50;;;;;11.75;68.27;101811.50;2387728;28;45430;-76
2022/12/28 03:04:54;;;;;;;;;4.25;4.25;;;;;11.74;68.19;101805.38;2399610;28;46489;-76
2022/12/28 03:08:21;;;;;;;;;6.75;6.00;;;;;11.78;68.08;101800.88;2402492;28;45791;-76
2022/12/28 03:09:37;;;;;;;;;5.00;5.00;;;;;11.79;68.05;101805.28;2396860;28;44690;-76
2022/12/28 03:11:00;;;;;;;;;6.75;5.75;;;;;11.79;67.96;101800.00;2398379;28;45428;-76
2022/12/28 03:12:22;;;;;;;;;6.25;4.50;;;;;11.80;68.03;101799.13;2392260;28;45329;-76
2022/12/28 03:13:55;;;;;;;;;6.25;5.25;;;;;11.79;67.93;101800.88;2400111;28;45642;-76
2022/12/28 03:15:10;;;;;;;;;6.25;6.00;;;;;11.81;67.84;101792.94;2404009;28;45225;-76
2022/12/28 03:32:06;;;;;;;;;5.50;5.25;;;;;11.81;68.12;101774.50;2394073;28;45691;-76
2022/12/28 03:33:16;;;;;;;;;4.25;3.75;;;;;11.81;68.01;101777.13;2402192;28;45501;-76
2022/12/28 03:34:27;;;;;;;;;6.50;6.00;;;;;11.81;68.01;101780.63;2411961;28;47457;-76
2022/12/28 03:36:06;;;;;;;;;4.00;4.00;;;;;11.81;68.01;101777.13;2409261;28;45320;-76
2022/12/28 03:37:24;;;;;;;;;8.25;6.75;;;;;11.79;68.34;101779.81;2399805;28;46391;-76
2022/12/28 03:39:07;;;;;;;;;5.00;5.00;;;;;11.80;67.97;101770.97;2394969;28;45170;-76
2022/12/28 03:40:25;;;;;;;;;9.00;6.50;;;;;11.80;68.09;101770.13;2403829;28;45671;-76
2022/12/28 03:41:46;;;;;;;;;6.25;5.00;;;;;11.80;68.01;101764.88;2405140;28;45326;-76
2022/12/28 03:44:34;;;;;;;;;5.50;5.50;;;;;11.83;68.23;101764.78;2394731;28;45253;-76
2022/12/28 03:46:01;;;;;;;;;7.25;5.50;;;;;11.83;68.12;101764.78;2394600;28;45483;-76
2022/12/28 03:47:13;;;;;;;;;5.00;5.00;;;;;11.82;67.98;101761.31;2397913;28;45261;-75
2022/12/28 03:48:24;;;;;;;;;8.00;5.25;;;;;11.82;68.15;101758.66;2403325;28;45374;-75
2022/12/28 03:49:35;;;;;;;;;2.75;2.25;;;;;11.84;68.19;101763.03;2399891;28;45242;-75
2022/12/28 03:50:48;;;;;;;;;5.75;3.00;;;;;11.85;68.05;101756.88;2393715;28;47115;-75
2022/12/28 03:52:00;;;;;;;;;6.00;5.50;;;;;11.86;68.39;101759.44;2394226;28;45330;-76
2022/12/28 03:53:11;;;;;;;;;7.00;5.75;;;;;11.87;68.09;101765.59;2393709;28;46637;-76
2022/12/28 03:54:21;;;;;;;;;4.00;4.00;;;;;11.87;68.15;101760.31;2396502;28;45339;-76
2022/12/28 03:55:32;;;;;;;;;3.75;3.75;;;;;11.89;67.87;101769.06;2401111;28;45254;-76
2022/12/28 03:56:51;;;;;;;;;7.25;4.50;;;;;11.89;67.94;101769.94;2402958;28;45314;-76
2022/12/28 03:58:01;;;;;;;;;6.00;5.00;;;;;11.90;68.04;101765.53;2399685;28;46442;-76
2022/12/28 03:59:12;;;;;;;;;5.25;5.00;;;;;11.89;68.07;101764.66;2394771;28;45266;-76
2022/12/28 04:00:22;;;;;;;;;5.75;4.00;;;;;11.88;68.04;101755.00;2393751;28;47527;-76
2022/12/28 04:01:32;;;;;;;;;5.50;5.25;;;;;11.87;68.07;101755.94;2396405;28;45230;-75
2022/12/28 04:02:43;;;;;;;;;4.25;3.75;;;;;11.87;67.45;101766.47;2400698;28;46366;-75
2022/12/28 04:03:53;;;;;;;;;5.25;4.25;;;;;11.89;68.03;101763.78;2394696;28;45290;-75
2022/12/28 04:05:04;;;;;;;;;5.00;5.00;;;;;11.89;68.08;101763.78;2397563;28;46855;-76
2022/12/28 04:06:17;;;;;;;;;6.75;5.75;;;;;11.88;67.87;101756.78;2393199;28;45254;-76
2022/12/28 04:07:27;;;;;;;;;5.00;5.00;;;;;11.89;67.73;101754.13;2388772;28;47385;-76
2022/12/28 04:08:38;;;;;;;;;4.75;4.50;;;;;11.91;67.83;101757.59;2394023;28;45250;-76
2022/12/28 04:09:48;;;;;;;;;7.00;4.50;;;;;11.90;67.85;101761.09;2394373;28;45321;-75
2022/12/28 04:11:00;;;;;;;;;6.75;5.75;;;;;11.91;67.98;101752.31;2393663;28;45369;-76
2022/12/28 04:12:11;;;;;;;;;7.75;6.25;;;;;11.91;67.89;101749.69;2393684;28;46455;-76
2022/12/28 04:13:22;;;;;;;;;5.50;5.50;;;;;11.92;68.06;101748.78;2393685;28;45179;-76
2022/12/28 04:14:32;;;;;;;;;6.50;5.25;;;;;11.92;68.04;101751.44;2405703;28;47088;-76
2022/12/28 04:15:42;;;;;;;;;8.00;5.50;;;;;11.93;67.72;101753.16;2401756;28;45229;-75
2022/12/28 04:16:53;;;;;;;;;6.25;5.50;;;;;11.93;67.93;101745.25;2397665;28;46073;-75
2022/12/28 04:18:03;;;;;;;;;7.25;5.00;;;;;11.93;67.90;101745.25;2394502;28;45147;-75
2022/12/28 04:19:14;;;;;;;;;5.00;4.75;;;;;11.93;67.96;101742.59;2402987;28;48567;-76
2022/12/28 04:20:24;;;;;;;;;6.00;4.00;;;;;11.94;67.98;101740.84;2400762;28;45291;-76
2022/12/28 04:21:34;;;;;;;;;6.50;5.50;;;;;11.92;67.92;101735.63;2393463;28;48107;-76
2022/12/28 04:22:45;;;;;;;;;6.25;5.00;;;;;11.92;67.85;101735.63;2393926;28;44616;-76
2022/12/28 04:23:55;;;;;;;;;5.25;4.75;;;;;11.92;67.74;101733.00;2394220;28;45195;-76
2022/12/28 04:25:06;;;;;;;;;8.00;6.00;;;;;11.92;68.11;101726.84;2393603;28;45234;-76
2022/12/28 04:26:17;;;;;;;;;6.00;4.50;;;;;11.91;67.88;101733.88;2400745;28;46328;-76
2022/12/28 04:27:27;;;;;;;;;6.50;6.25;;;;;11.91;67.89;101731.25;2394402;28;45380;-76
2022/12/28 04:28:38;;;;;;;;;4.50;4.25;;;;;11.91;68.14;101720.72;2394107;28;46272;-76
2022/12/28 04:29:48;;;;;;;;;5.25;5.25;;;;;11.91;67.99;101725.09;2394352;28;45479;-76
2022/12/28 04:31:00;;;;;;;;;6.25;5.25;;;;;11.90;67.97;101718.13;2394373;28;46448;-76
2022/12/28 04:32:11;;;;;;;;;4.50;4.50;;;;;11.89;67.84;101717.25;2394460;28;45313;-75
2022/12/28 04:33:22;;;;;;;;;4.75;3.75;;;;;11.89;68.28;101722.50;2394126;28;46284;-76
2022/12/28 04:34:32;;;;;;;;;5.50;5.50;;;;;11.89;68.17;101721.63;2403035;28;44676;-76
2022/12/28 04:35:42;;;;;;;;;6.25;4.75;;;;;11.87;67.94;101716.41;2403280;28;45486;-76
2022/12/28 04:36:53;;;;;;;;;6.25;4.25;;;;;11.86;68.30;101716.44;2398837;28;45222;-76
2022/12/28 04:38:03;;;;;;;;;6.75;4.25;;;;;11.85;68.07;101712.97;2394120;28;46648;-76
2022/12/28 04:39:13;;;;;;;;;4.25;4.00;;;;;11.86;68.15;101714.66;2394419;28;45208;-76
2022/12/28 04:40:24;;;;;;;;;6.00;6.00;;;;;11.86;68.23;101713.78;2394113;28;45219;-76
2022/12/28 04:41:34;;;;;;;;;6.00;6.00;;;;;11.86;68.40;101712.03;2393983;28;45207;-76
2022/12/28 04:42:44;;;;;;;;;4.75;4.75;;;;;11.86;68.24;101714.66;2394123;28;45355;-76
2022/12/28 04:43:55;;;;;;;;;6.50;4.75;;;;;11.86;68.19;101717.31;2394398;28;45224;-76
2022/12/28 04:45:06;;;;;;;;;6.50;5.50;;;;;11.85;68.26;101709.44;2402777;28;48105;-76
2022/12/28 04:46:16;;;;;;;;;7.00;5.00;;;;;11.86;67.97;101714.66;2395833;28;45215;-76
2022/12/28 04:47:27;;;;;;;;;4.50;3.75;;;;;11.86;67.97;101711.16;2402337;28;47078;-76
2022/12/28 04:48:38;;;;;;;;;5.75;4.00;;;;;11.85;68.10;101705.06;2390144;28;45167;-76
2022/12/28 04:49:49;;;;;;;;;6.33;5.00;;;;;11.86;68.12;101705.91;2386617;28;46996;-76
2022/12/28 04:51:24;;;;;;;;;4.00;4.00;;;;;11.86;68.50;101716.44;2396235;28;45337;-76
2022/12/28 04:52:35;;;;;;;;;3.50;3.50;;;;;11.87;68.30;101716.41;2396802;28;45351;-76
2022/12/28 04:53:45;;;;;;;;;4.00;4.00;;;;;11.87;68.37;101705.88;2394268;28;45153;-76
2022/12/28 04:54:55;;;;;;;;;6.00;4.75;;;;;11.87;68.18;101713.78;2401083;28;45466;-76
2022/12/28 04:56:07;;;;;;;;;5.00;4.75;;;;;11.88;68.19;101704.97;2397476;28;44746;-76
2022/12/28 04:57:18;;;;;;;;;5.00;4.00;;;;;11.85;68.72;101697.16;2401548;28;45338;-76
2022/12/28 04:58:28;;;;;;;;;4.50;4.00;;;;;11.86;68.61;101706.78;2407907;28;45310;-76
2022/12/28 04:59:39;;;;;;;;;4.00;4.00;;;;;11.86;68.54;101701.50;2400703;28;48407;-76
2022/12/28 05:00:49;;;;;;;;;4.00;4.00;;;;;11.86;68.33;101696.22;2403141;28;45300;-76
2022/12/28 05:02:00;;;;;;;;;4.25;3.00;;;;;11.86;68.22;101701.50;2403383;28;46149;-76
2022/12/28 05:03:10;;;;;;;;;4.50;4.00;;;;;11.86;68.40;101696.22;2403603;28;45249;-76
2022/12/28 05:04:20;;;;;;;;;5.00;4.25;;;;;11.86;68.51;101685.69;2402637;28;46059;-76
2022/12/28 05:05:31;;;;;;;;;5.25;5.00;;;;;11.86;68.83;101682.19;2401273;28;45434;-76
2022/12/28 05:06:41;;;;;;;;;1.25;1.00;;;;;11.86;68.35;101690.09;2400416;28;45512;-75
2022/12/28 05:07:51;;;;;;;;;2.00;2.00;;;;;11.87;68.46;101690.06;2394218;28;45265;-76
2022/12/28 05:09:02;;;;;;;;;4.75;4.00;;;;;11.87;68.58;101676.03;2393845;28;46226;-76
2022/12/28 05:10:12;;;;;;;;;5.00;3.00;;;;;11.86;68.81;101685.69;2412061;28;44648;-76
2022/12/28 05:11:28;;;;;;;;;4.75;4.75;;;;;11.85;68.59;101683.97;2409259;28;46796;-76
2022/12/28 05:12:38;;;;;;;;;6.00;4.00;;;;;11.86;68.79;101683.06;2399672;28;45362;-75
2022/12/28 05:13:49;;;;;;;;;7.00;6.00;;;;;11.85;68.72;101683.97;2393828;28;46301;-75
2022/12/28 05:14:59;;;;;;;;;4.50;4.50;;;;;11.86;68.83;101672.53;2396652;28;46830;-76
2022/12/28 05:16:14;;;;;;;;;4.50;4.25;;;;;11.87;69.03;101681.31;2398711;28;45322;-75
2022/12/28 05:17:25;;;;;;;;;4.25;3.00;;;;;11.87;68.89;101682.19;2395854;28;45226;-75
2022/12/28 05:18:36;;;;;;;;;4.75;2.75;;;;;11.87;68.97;101676.03;2402427;28;46268;-76
2022/12/28 05:19:46;;;;;;;;;3.50;3.50;;;;;11.87;68.99;101679.53;2398038;28;45225;-76
2022/12/28 05:21:05;;;;;;;;;4.75;3.75;;;;;11.88;68.84;101678.63;2393799;28;45456;-76
2022/12/28 05:22:16;;;;;;;;;6.25;3.25;;;;;11.87;69.09;101682.19;2393312;28;45214;-76
2022/12/28 05:23:30;;;;;;;;;4.25;3.75;;;;;11.87;68.96;101673.41;2400981;28;45496;-76
2022/12/28 05:24:40;;;;;;;;;4.50;3.00;;;;;11.87;69.14;101671.63;2403317;28;45419;-76
2022/12/28 05:25:54;;;;;;;;;6.00;4.00;;;;;11.86;69.17;101669.88;2401311;28;45443;-76
2022/12/28 05:27:04;;;;;;;;;5.00;5.00;;;;;11.86;68.95;101669.88;2401239;28;45376;-76
2022/12/28 05:28:15;;;;;;;;;7.50;6.00;;;;;11.87;69.42;101676.03;2402774;28;46658;-76
2022/12/28 05:29:25;;;;;;;;;9.00;6.00;;;;;11.87;69.11;101670.75;2403500;28;45218;-76
2022/12/28 05:30:35;;;;;;;;;2.25;1.50;;;;;11.87;69.12;101671.63;2404447;28;47994;-76
2022/12/28 05:31:46;;;;;;;;;6.00;5.00;;;;;11.87;69.15;101673.41;2400257;28;45218;-76
2022/12/28 05:32:56;;;;;;;;;6.00;4.25;;;;;11.86;69.08;101669.88;2397018;28;45249;-76
2022/12/28 05:34:07;;;;;;;;;5.00;2.50;;;;;11.86;69.28;101659.34;2402561;28;45226;-76
2022/12/28 05:35:17;;;;;;;;;4.75;3.50;;;;;11.88;69.22;101664.56;2402372;28;45314;-76
2022/12/28 05:36:27;;;;;;;;;4.50;4.00;;;;;11.89;69.18;101663.69;2396165;28;45293;-76
2022/12/28 05:37:38;;;;;;;;;4.75;3.50;;;;;11.86;69.10;101656.72;2393192;28;47213;-76
2022/12/28 05:38:49;;;;;;;;;4.25;4.25;;;;;11.85;69.04;101662.91;2393067;28;45228;-76
2022/12/28 05:40:00;;;;;;;;;5.50;4.75;;;;;11.83;69.31;101654.16;2386331;28;46305;-76
2022/12/28 05:41:18;;;;;;;;;6.75;6.25;;;;;11.81;69.61;101661.22;2400286;28;46221;-76
2022/12/28 05:42:28;;;;;;;;;7.50;5.00;;;;;11.82;69.30;101660.34;2402753;28;46264;-76
2022/12/28 05:43:39;;;;;;;;;6.00;4.00;;;;;11.82;69.31;101657.69;2401850;28;45396;-76
2022/12/28 05:44:49;;;;;;;;;9.25;4.50;;;;;11.81;69.44;101655.97;2401516;28;45583;-76
2022/12/28 05:46:02;;;;;;;;;3.50;3.50;;;;;11.81;69.47;101661.22;2398454;28;45491;-76
2022/12/28 05:47:12;;;;;;;;;6.00;5.50;;;;;11.81;69.41;101656.84;2402155;28;46333;-78
2022/12/28 05:48:22;;;;;;;;;8.75;5.25;;;;;11.79;69.06;101652.50;2401190;28;45213;-76
2022/12/28 05:49:33;;;;;;;;;6.00;5.50;;;;;11.79;69.33;101660.41;2401596;28;46312;-76
2022/12/28 05:50:43;;;;;;;;;6.00;0.25;;;;;11.80;69.23;101651.59;2403129;28;44620;-76
2022/12/28 05:51:53;;;;;;;;;8.50;5.00;;;;;11.78;69.39;101654.25;2402959;28;45410;-76
2022/12/28 05:53:04;;;;;;;;;8.00;5.00;;;;;11.77;69.43;101649.91;2403288;28;44626;-75
2022/12/28 05:54:14;;;;;;;;;5.75;5.75;;;;;11.78;69.65;101656.03;2402994;28;45335;-76
2022/12/28 05:55:24;;;;;;;;;4.25;4.25;;;;;11.78;69.60;101656.03;2403243;28;45412;-76
2022/12/28 05:56:35;;;;;;;;;6.25;5.50;;;;;11.79;69.22;101652.50;2395442;28;46112;-76
2022/12/28 05:57:45;;;;;;;;;6.75;4.75;;;;;11.79;69.46;101650.75;2393839;28;45222;-76
2022/12/28 05:59:04;;;;;;;;;4.50;4.00;;;;;11.80;69.45;101649.81;2395291;28;45257;-76
2022/12/28 06:00:14;;;;;;;;;4.75;4.00;;;;;11.81;69.35;101640.16;2402375;28;45301;-76
2022/12/28 06:01:30;;;;;;;;;5.25;3.75;;;;;11.82;69.53;101652.44;2402516;28;45768;-75
2022/12/28 06:02:41;;;;;;;;;5.50;5.00;;;;;11.83;69.41;101648.88;2403306;28;45260;-75
2022/12/28 06:04:03;;;;;;;;;6.25;3.50;;;;;11.82;69.51;101648.03;2402896;28;45416;-75
2022/12/28 06:05:13;;;;;;;;;8.25;6.50;;;;;11.83;69.54;101646.25;2402128;28;45214;-76
2022/12/28 06:06:24;;;;;;;;;2.50;2.50;;;;;11.83;69.47;101646.25;2397572;28;45236;-76
2022/12/28 06:07:34;;;;;;;;;7.75;6.25;;;;;11.83;69.25;101648.88;2393972;28;45160;-76
2022/12/28 06:08:46;;;;;;;;;4.25;4.25;;;;;11.82;69.50;101647.16;2393369;28;48255;-76